To NAV CANADA Home Page Login to a new session Search on AWWS site Feedback and Comments Disclaimer Vers la page française équivalente Tips FAQ What's new on the site To the Forecasts and Observations / NOTAM section To "File a Flight Plan" website Publications and other links Update of the User's profile FIC Telephone Numbers My Weather Data Folder Route Weather Data Regional Weather Data Local Weather Data To the Forecasts and Observations / NOTAM section
Request Generated 01/17/2017 at 04:51:00 UTC . Weather information available at that time is displayed.

METAR/TAF

LONDON/ON    

METAR CYXU 170400Z 09006KT 10SM -FZRA SCT050 OVC075 M00/M01 A3017 RMK
SC3AS5 SLP229=
METAR CYXU 170300Z 10005KT 10SM -FZRA OVC045 M01/M02 A3020 RMK SC8
SLP240=
METAR CYXU 170200Z 09005KT 5SM -FZRA BR OVC048 M01/M02 A3021 RMK SC8
SLP247=

TAF AMD CYXU 170112Z 1701/1724 12005KT 6SM -FZRA BR OVC040 TEMPO
1701/1703 5SM -FZRA BR
FM170300 01007KT 6SM -FZRA BR OVC030 TEMPO 1703/1709 4SM BR
OVC020
FM170900 10010KT 3SM -FZRA BR OVC015 TEMPO 1709/1712 6SM -RA BR
OVC025
FM171200 09015KT 2SM -RA BR OVC008
FM171500 09015KT 3/4SM -RA BR OVC006
FM172100 10007KT 1/2SM -RA -DZ FG OVC004
BECMG 1722/1724 24008KT
RMK NXT FCST BY 170600Z=
Your time UTC time
Weather data provided by Environment Canada and NAV CANADA